Time;durP1;ratioP1;P1;durP2;ratioP2;P2;SDS_P1;SDS_P2;PMS_P1;PMS_P2;Temp;Humidity;BMP_temperature;BMP_pressure;BME280_temperature;BME280_humidity;BME280_pressure;Samples;Min_cycle;Max_cycle;Signal;HPM_P1;HPM_P2
2021/11/14 06:00:19;;;;;;;17.25;11.80;;;7.70;99.90;;;;;;5962124;23;20023;31
2021/11/14 06:02:48;;;;;;;14.95;10.30;;;7.70;99.90;;;;;;4877387;29;20056;-82
2021/11/14 06:05:16;;;;;;;15.98;10.82;;;7.70;99.90;;;;;;4879779;29;20073;-80
2021/11/14 06:07:44;;;;;;;15.43;10.52;;;7.70;99.90;;;;;;4881600;29;20060;-80
2021/11/14 06:12:51;;;;;;;15.00;10.57;;;7.70;99.90;;;;;;4913515;29;20044;-78
2021/11/14 06:15:22;;;;;;;14.93;10.82;;;7.70;99.90;;;;;;4916161;29;20611;-80
2021/11/14 06:17:49;;;;;;;15.98;11.20;;;7.60;99.90;;;;;;4920459;29;20126;-82
2021/11/14 06:20:18;;;;;;;14.38;9.95;;;7.60;99.90;;;;;;4917748;29;20056;-81
2021/11/14 06:22:45;;;;;;;15.43;11.07;;;7.60;99.90;;;;;;4917584;29;20131;-81
2021/11/14 06:25:13;;;;;;;16.75;10.98;;;7.60;99.90;;;;;;4917860;29;20052;-80
2021/11/14 06:27:42;;;;;;;16.02;10.60;;;7.60;99.90;;;;;;4916942;29;20094;-80
2021/11/14 06:30:13;;;;;;;16.08;10.75;;;7.60;99.90;;;;;;4916467;29;20136;-80
2021/11/14 06:32:42;;;;;;;16.83;11.60;;;7.60;99.90;;;;;;4916555;29;20052;-81
2021/11/14 06:35:10;;;;;;;17.23;10.82;;;7.60;99.90;;;;;;4916503;29;20135;-79
2021/11/14 06:37:38;;;;;;;15.98;10.98;;;7.60;99.90;;;;;;4916557;29;20135;-79
2021/11/14 06:40:08;;;;;;;14.50;10.05;;;7.60;99.90;;;;;;4915856;29;20135;-79
2021/11/14 06:42:35;;;;;;;16.08;11.13;;;7.60;99.90;;;;;;4916841;29;20557;-79
2021/11/14 06:45:03;;;;;;;14.98;10.50;;;7.60;99.90;;;;;;4917196;29;20083;-78
2021/11/14 06:47:31;;;;;;;16.20;10.85;;;7.60;99.90;;;;;;4917804;29;20127;-79
2021/11/14 06:49:59;;;;;;;14.88;10.38;;;7.60;99.90;;;;;;4918005;29;20148;-81
2021/11/14 06:52:26;;;;;;;14.52;10.13;;;7.60;99.90;;;;;;4918607;29;20132;-80
2021/11/14 06:54:54;;;;;;;14.68;9.88;;;7.60;99.90;;;;;;4918112;29;20079;-83
2021/11/14 06:57:21;;;;;;;14.13;10.00;;;7.60;99.90;;;;;;4917570;29;20107;-80
2021/11/14 06:59:49;;;;;;;13.77;10.10;;;7.60;99.90;;;;;;4916988;29;20055;-82
2021/11/14 07:02:17;;;;;;;18.30;11.00;;;7.60;99.90;;;;;;4917602;29;20139;-81
2021/11/14 07:04:44;;;;;;;16.08;10.88;;;7.60;99.90;;;;;;4916765;29;20048;-79
2021/11/14 07:07:12;;;;;;;13.57;9.93;;;7.60;99.90;;;;;;4916639;29;20127;-81
2021/11/14 07:09:40;;;;;;;13.55;10.02;;;7.60;99.90;;;;;;4917134;29;20432;-79
2021/11/14 07:12:08;;;;;;;14.82;10.40;;;7.60;99.90;;;;;;4916032;29;20080;-81
2021/11/14 07:14:35;;;;;;;19.52;12.23;;;7.60;99.90;;;;;;4918441;29;20127;-81
2021/11/14 07:17:02;;;;;;;17.35;11.60;;;7.60;99.90;;;;;;4915473;29;20466;-81
2021/11/14 07:19:30;;;;;;;18.88;12.23;;;7.60;99.90;;;;;;4916256;29;20128;-79
2021/11/14 07:21:57;;;;;;;17.50;11.57;;;7.60;99.90;;;;;;4915747;29;20139;-79
2021/11/14 07:24:26;;;;;;;17.77;11.30;;;7.60;99.90;;;;;;4914558;29;20051;-79
2021/11/14 07:26:53;;;;;;;18.02;10.85;;;7.60;99.90;;;;;;4917477;29;20076;-80
2021/11/14 07:29:20;;;;;;;16.98;11.50;;;7.50;99.90;;;;;;4915904;29;20135;-81
2021/11/14 07:31:47;;;;;;;17.80;11.55;;;7.50;99.90;;;;;;4915635;29;20135;-79
2021/11/14 07:34:14;;;;;;;21.52;12.93;;;7.50;99.90;;;;;;4915857;29;20128;-82
2021/11/14 07:36:41;;;;;;;18.75;11.70;;;7.50;99.90;;;;;;4915676;29;20111;-81
2021/11/14 07:39:08;;;;;;;19.00;12.05;;;7.50;99.90;;;;;;4914154;29;20171;-79
2021/11/14 07:41:37;;;;;;;19.35;12.10;;;7.50;99.90;;;;;;4915251;29;20143;-81
2021/11/14 07:44:05;;;;;;;19.33;12.82;;;7.50;99.90;;;;;;4915372;29;20138;-79
2021/11/14 07:46:32;;;;;;;19.27;12.40;;;7.50;99.90;;;;;;4915640;29;20100;-80
2021/11/14 07:48:59;;;;;;;18.70;12.20;;;7.60;99.90;;;;;;4911994;29;20119;-78
2021/11/14 07:51:27;;;;;;;16.90;11.93;;;7.60;99.90;;;;;;4921344;29;20112;-79
2021/11/14 07:53:55;;;;;;;17.52;11.55;;;7.60;99.90;;;;;;4915588;29;20135;-79
2021/11/14 07:56:22;;;;;;;16.92;11.05;;;7.70;99.90;;;;;;4915692;29;20052;-77
2021/11/14 07:58:50;;;;;;;16.15;11.20;;;7.70;99.90;;;;;;4915808;29;20115;-81
2021/11/14 08:01:17;;;;;;;16.85;11.15;;;7.70;99.90;;;;;;4915960;29;20131;-81
2021/11/14 08:03:45;;;;;;;14.85;10.48;;;7.80;99.90;;;;;;4915335;29;20561;-80
2021/11/14 08:06:12;;;;;;;17.42;11.18;;;7.80;99.90;;;;;;4915350;29;20504;-78
2021/11/14 08:08:41;;;;;;;16.88;10.85;;;7.90;99.90;;;;;;4915430;29;20136;-82
2021/11/14 08:11:08;;;;;;;14.73;10.00;;;7.90;99.90;;;;;;4915455;29;20063;-77
2021/11/14 08:13:35;;;;;;;14.88;10.15;;;7.90;99.90;;;;;;4915915;29;20513;-82
2021/11/14 08:16:04;;;;;;;15.80;10.60;;;8.00;99.90;;;;;;4915979;29;20128;-79
2021/11/14 08:18:31;;;;;;;16.90;11.23;;;8.00;99.90;;;;;;4916045;29;20139;-80
2021/11/14 08:20:59;;;;;;;15.82;10.65;;;8.00;99.90;;;;;;4915508;29;20685;-79
2021/11/14 08:23:26;;;;;;;15.70;10.25;;;8.00;99.90;;;;;;4915082;29;20473;-78
2021/11/14 08:25:53;;;;;;;15.50;10.50;;;7.90;99.90;;;;;;4914975;29;20145;-79
2021/11/14 08:28:21;;;;;;;17.00;11.40;;;8.00;99.90;;;;;;4916354;29;20076;-80
2021/11/14 08:30:48;;;;;;;16.88;11.55;;;8.00;99.90;;;;;;4920999;29;20079;-81
2021/11/14 08:33:16;;;;;;;15.95;10.70;;;8.00;99.90;;;;;;4921239;29;20079;-77
2021/11/14 08:35:45;;;;;;;18.05;12.00;;;8.00;99.90;;;;;;4919015;29;20138;-76
2021/11/14 08:38:12;;;;;;;23.60;14.95;;;8.10;99.90;;;;;;4912843;29;20564;-79
2021/11/14 08:40:40;;;;;;;22.40;14.45;;;8.20;99.90;;;;;;4918850;29;20252;-79
2021/11/14 08:43:09;;;;;;;21.02;13.93;;;8.20;99.90;;;;;;4920009;29;20081;-79
2021/11/14 08:45:37;;;;;;;20.83;14.45;;;8.20;99.90;;;;;;4918613;29;20405;-80
2021/11/14 08:48:06;;;;;;;20.55;13.70;;;8.20;99.90;;;;;;4918929;29;20134;-80
2021/11/14 08:50:34;;;;;;;21.52;13.15;;;8.20;99.90;;;;;;4918359;29;20131;-79
2021/11/14 08:53:03;;;;;;;20.20;13.35;;;8.20;99.90;;;;;;4918416;29;20090;-77
2021/11/14 08:55:30;;;;;;;19.17;12.45;;;8.20;99.90;;;;;;4918717;29;20109;-76
2021/11/14 08:57:59;;;;;;;20.52;13.15;;;8.20;99.90;;;;;;4918246;29;20450;-77
2021/11/14 09:00:33;;;;;;;20.67;13.15;;;8.30;99.90;;;;;;4918489;29;20153;-76
2021/11/14 09:03:02;;;;;;;20.63;13.25;;;8.30;99.90;;;;;;4918536;29;20131;-78
2021/11/14 09:05:32;;;;;;;21.42;14.02;;;8.40;99.90;;;;;;4918431;29;20079;-76
2021/11/14 09:08:02;;;;;;;20.90;13.38;;;8.40;99.90;;;;;;4918363;29;20483;-76
2021/11/14 09:10:31;;;;;;;20.25;12.85;;;8.50;99.90;;;;;;4918457;29;20048;-81
2021/11/14 09:12:58;;;;;;;19.80;13.45;;;8.50;99.90;;;;;;4918447;29;20520;-80
2021/11/14 09:15:29;;;;;;;21.77;13.40;;;8.50;99.90;;;;;;4917877;29;20139;-79
2021/11/14 09:17:56;;;;;;;21.60;13.77;;;8.60;99.90;;;;;;4918192;29;20052;-81
2021/11/14 09:20:24;;;;;;;22.95;15.20;;;8.60;99.90;;;;;;4918082;29;20131;-80
2021/11/14 09:22:51;;;;;;;23.38;14.18;;;8.70;99.90;;;;;;4918308;29;20136;-82
2021/11/14 09:25:21;;;;;;;22.13;14.95;;;8.70;99.90;;;;;;4911285;29;20135;-79
2021/11/14 09:27:48;;;;;;;23.00;14.93;;;8.70;99.90;;;;;;4917066;29;20406;-81
2021/11/14 09:30:17;;;;;;;21.25;14.40;;;8.70;99.90;;;;;;4916542;29;20798;-79
2021/11/14 09:32:45;;;;;;;22.50;14.80;;;8.70;99.90;;;;;;4917940;29;20111;-78
2021/11/14 09:35:13;;;;;;;23.70;15.30;;;8.80;99.90;;;;;;4916440;29;20044;-81
2021/11/14 09:37:40;;;;;;;21.85;14.27;;;8.80;99.90;;;;;;4917717;29;20135;-78
2021/11/14 09:40:10;;;;;;;23.05;15.25;;;8.80;99.90;;;;;;4917060;29;20138;-81
2021/11/14 09:42:40;;;;;;;24.30;15.32;;;8.90;99.90;;;;;;4917594;29;20147;-80
2021/11/14 09:45:09;;;;;;;23.40;14.65;;;8.90;99.90;;;;;;4917772;29;20529;-80
2021/11/14 09:47:38;;;;;;;22.38;14.93;;;9.00;99.90;;;;;;4917688;29;20044;-80
2021/11/14 09:50:08;;;;;;;22.73;14.40;;;9.00;99.90;;;;;;4917137;29;20565;-79
2021/11/14 09:52:35;;;;;;;22.77;15.05;;;9.10;99.90;;;;;;4917286;29;20139;-79
2021/11/14 09:55:04;;;;;;;21.50;14.18;;;9.10;99.90;;;;;;4913391;29;20048;-78
2021/11/14 09:57:31;;;;;;;22.33;14.95;;;9.20;99.90;;;;;;4916988;29;20136;-77
2021/11/14 09:59:59;;;;;;;23.77;14.57;;;9.20;99.90;;;;;;4916858;29;20147;-79
2021/11/14 10:02:26;;;;;;;22.73;14.10;;;9.20;99.90;;;;;;4916905;29;20148;-81
2021/11/14 10:04:53;;;;;;;22.33;14.13;;;9.30;99.90;;;;;;4916787;29;20139;-75
2021/11/14 10:07:22;;;;;;;21.52;13.70;;;9.30;99.90;;;;;;4914243;29;20075;-80
2021/11/14 10:09:52;;;;;;;24.33;15.57;;;9.40;99.90;;;;;;4917054;29;20067;-80
2021/11/14 10:12:22;;;;;;;21.00;13.75;;;9.40;99.90;;;;;;4916775;29;20173;-79
2021/11/14 10:14:52;;;;;;;23.40;14.15;;;9.40;99.90;;;;;;4916231;29;20111;-80
2021/11/14 10:17:25;;;;;;;25.23;15.00;;;9.40;99.90;;;;;;4916229;29;20052;-79
2021/11/14 10:20:07;;;;;;;25.80;15.50;;;9.40;99.90;;;;;;4913994;29;20144;-81
2021/11/14 10:22:37;;;;;;;24.90;14.88;;;9.50;99.90;;;;;;4916435;29;20151;-79
2021/11/14 10:25:06;;;;;;;22.98;13.50;;;9.50;99.90;;;;;;4917239;29;20083;-81
2021/11/14 10:27:34;;;;;;;27.52;15.73;;;9.50;99.90;;;;;;4917054;29;20134;-80
2021/11/14 10:30:02;;;;;;;26.35;15.90;;;9.50;99.90;;;;;;4917453;29;20147;-81
2021/11/14 10:32:30;;;;;;;25.80;15.63;;;9.50;99.90;;;;;;4916650;29;20046;-78
2021/11/14 10:35:01;;;;;;;26.60;14.77;;;9.50;99.90;;;;;;4914319;29;20043;-80
2021/11/14 10:37:29;;;;;;;26.33;16.02;;;9.60;99.90;;;;;;4919474;29;20059;-82
2021/11/14 10:40:00;;;;;;;28.85;16.98;;;9.60;99.90;;;;;;4915529;29;20468;-81
2021/11/14 10:42:31;;;;;;;27.02;16.05;;;9.70;99.90;;;;;;4915803;29;20139;-75
2021/11/14 10:45:01;;;;;;;29.35;16.23;;;9.70;99.90;;;;;;4916170;29;20135;-79
2021/11/14 10:47:32;;;;;;;28.83;15.80;;;9.70;99.90;;;;;;4917014;29;20430;-78
2021/11/14 10:50:02;;;;;;;32.88;17.20;;;9.70;99.90;;;;;;4916170;29;20052;-76
2021/11/14 10:52:32;;;;;;;34.17;17.73;;;9.80;99.90;;;;;;4915698;29;20080;-80
2021/11/14 10:55:04;;;;;;;30.65;16.08;;;9.90;99.90;;;;;;4910499;29;20136;-78
2021/11/14 10:57:33;;;;;;;32.55;16.88;;;9.90;99.90;;;;;;4918069;29;20111;-78
2021/11/14 11:00:01;;;;;;;33.25;17.10;;;10.00;99.90;;;;;;4913109;29;20076;-80
2021/11/14 11:02:30;;;;;;;30.48;15.82;;;10.10;99.90;;;;;;4909605;29;20083;-79
2021/11/14 11:05:10;;;;;;;32.10;16.65;;;10.10;99.90;;;;;;4915790;29;20056;-81
2021/11/14 11:07:42;;;;;;;28.83;15.80;;;10.10;99.90;;;;;;4916236;29;20079;-80
2021/11/14 11:10:10;;;;;;;29.85;15.88;;;10.10;99.90;;;;;;4914500;29;20044;-79
2021/11/14 11:12:38;;;;;;;28.00;14.30;;;10.10;99.90;;;;;;4916048;29;20099;-79
2021/11/14 11:15:10;;;;;;;28.85;15.15;;;10.20;99.90;;;;;;4915822;29;20143;-79
2021/11/14 11:17:48;;;;;;;26.23;14.25;;;10.20;99.90;;;;;;4918147;29;20413;-77
2021/11/14 11:20:19;;;;;;;27.83;13.95;;;10.20;99.90;;;;;;4928006;29;20111;-80
2021/11/14 11:22:53;;;;;;;25.50;13.73;;;10.20;99.90;;;;;;4917188;29;20425;-87
2021/11/14 11:25:32;;;;;;;22.27;12.40;;;10.30;99.90;;;;;;4915165;29;20044;-80
2021/11/14 11:28:00;;;;;;;22.98;12.32;;;10.50;99.90;;;;;;4914911;29;20094;-78
2021/11/14 11:30:32;;;;;;;22.23;12.15;;;10.60;99.90;;;;;;4918202;29;20052;-82
2021/11/14 11:33:01;;;;;;;23.00;12.25;;;10.60;99.90;;;;;;4916850;29;20063;-77
2021/11/14 11:35:28;;;;;;;20.17;11.13;;;10.60;99.90;;;;;;4906045;29;20075;-77
2021/11/14 11:37:56;;;;;;;20.45;10.63;;;10.60;99.90;;;;;;4917345;29;20466;-80
2021/11/14 11:40:24;;;;;;;19.40;11.00;;;10.60;99.90;;;;;;4916399;29;20095;-79
2021/11/14 11:42:55;;;;;;;19.10;11.00;;;10.50;99.90;;;;;;4918064;29;20080;-83
2021/11/14 11:45:31;;;;;;;17.77;10.10;;;10.50;99.90;;;;;;4916558;29;20092;-78
2021/11/14 11:48:05;;;;;;;20.48;11.75;;;10.60;99.90;;;;;;4917028;29;20404;-81
2021/11/14 11:50:35;;;;;;;18.75;10.68;;;10.60;99.90;;;;;;4916895;29;20076;-76
2021/11/14 11:53:03;;;;;;;18.77;10.48;;;10.60;99.90;;;;;;4916638;29;20135;-78
2021/11/14 11:55:37;;;;;;;20.65;11.55;;;10.70;99.90;;;;;;4916689;29;20253;-78
2021/11/14 11:58:15;;;;;;;21.27;11.55;;;10.60;99.90;;;;;;4907923;29;20135;-79
2021/11/14 12:00:54;;;;;;;19.38;11.18;;;10.60;99.90;;;;;;4916371;29;20516;-79
2021/11/14 12:03:29;;;;;;;21.23;11.48;;;10.60;99.90;;;;;;4920354;29;20111;-78
2021/11/14 12:05:57;;;;;;;;;;;10.60;99.90;;;;;;4915613;29;20052;-79
2021/11/14 12:08:38;;;;;;;18.95;10.80;;;10.50;99.90;;;;;;4921756;29;20349;-82
2021/11/14 12:11:10;;;;;;;19.70;10.43;;;10.50;99.90;;;;;;4921637;29;20052;-82
2021/11/14 12:13:44;;;;;;;20.35;11.05;;;10.50;99.90;;;;;;4919931;29;20566;-76
2021/11/14 12:16:11;;;;;;;19.45;11.43;;;10.40;99.90;;;;;;4919247;29;20079;-82
2021/11/14 12:18:43;;;;;;;19.52;10.40;;;10.40;99.90;;;;;;4920701;29;20068;-84
2021/11/14 12:21:18;;;;;;;19.00;10.60;;;10.40;99.90;;;;;;4918943;29;20087;-79
2021/11/14 12:23:55;;;;;;;;;;;10.40;99.90;;;;;;4916678;29;20143;-77
2021/11/14 12:26:35;;;;;;;21.17;11.45;;;10.40;99.90;;;;;;4927886;29;19934;-78
2021/11/14 12:29:07;;;;;;;21.60;11.20;;;10.40;99.90;;;;;;4923612;29;20094;-79
2021/11/14 12:31:47;;;;;;;20.50;10.73;;;10.30;99.90;;;;;;4917507;29;20091;-81
2021/11/14 12:34:24;;;;;;;18.70;10.73;;;10.30;99.90;;;;;;4918693;29;20051;-79
2021/11/14 12:36:53;;;;;;;19.00;10.70;;;10.30;99.90;;;;;;4913314;29;20055;-79
2021/11/14 12:39:22;;;;;;;20.70;11.73;;;10.30;99.90;;;;;;4915003;29;20131;-81
2021/11/14 12:41:57;;;;;;;18.92;10.43;;;10.30;99.90;;;;;;4914872;29;20087;-80
2021/11/14 12:44:38;;;;;;;18.90;11.25;;;10.20;99.90;;;;;;4909698;29;20131;-80
2021/11/14 12:47:19;;;;;;;19.92;11.30;;;10.30;99.90;;;;;;4915426;29;20357;-75
2021/11/14 12:50:09;;;;;;;19.92;11.15;;;10.20;99.90;;;;;;4911574;29;20135;-78
2021/11/14 12:52:48;;;;;;;19.83;11.02;;;10.30;99.90;;;;;;4910741;29;20155;-79
2021/11/14 12:55:23;;;;;;;17.63;10.82;;;10.30;99.90;;;;;;4914036;29;20080;-81
2021/11/14 12:57:55;;;;;;;17.42;10.43;;;10.30;99.90;;;;;;4917003;29;20056;-76
2021/11/14 13:00:31;;;;;;;18.48;10.57;;;10.40;99.90;;;;;;4904858;29;20079;-76
2021/11/14 13:02:59;;;;;;;17.58;10.32;;;10.40;99.90;;;;;;4916913;29;20092;-76
2021/11/14 13:05:30;;;;;;;17.88;10.38;;;10.50;99.90;;;;;;4915121;29;20474;-78
2021/11/14 13:08:00;;;;;;;17.58;10.55;;;10.50;99.90;;;;;;4917024;29;20055;-74
2021/11/14 13:10:31;;;;;;;18.25;11.38;;;10.60;99.90;;;;;;4916784;29;20394;-77
2021/11/14 13:13:02;;;;;;;18.50;10.52;;;10.80;99.90;;;;;;4917938;29;20056;-75
2021/11/14 13:15:29;;;;;;;19.60;11.90;;;10.90;99.90;;;;;;4914468;29;20062;-77
2021/11/14 13:17:58;;;;;;;18.70;10.70;;;10.90;99.90;;;;;;4901215;29;20080;-76
2021/11/14 13:20:29;;;;;;;17.17;10.38;;;10.90;99.90;;;;;;4901681;29;20578;-78
2021/11/14 13:22:57;;;;;;;17.55;10.60;;;10.90;99.90;;;;;;4912718;29;20060;-77
2021/11/14 13:25:28;;;;;;;18.30;10.90;;;10.90;99.90;;;;;;4923701;29;20082;-76
2021/11/14 13:27:57;;;;;;;18.35;10.88;;;10.80;99.90;;;;;;4908272;29;20080;-77
2021/11/14 13:30:26;;;;;;;20.40;11.38;;;10.80;99.90;;;;;;4913230;29;20494;-76
2021/11/14 13:32:58;;;;;;;19.23;11.02;;;10.70;99.90;;;;;;4908825;29;20058;-81
2021/11/14 13:35:26;;;;;;;20.85;11.80;;;10.70;99.90;;;;;;4907616;29;20048;-78
2021/11/14 13:37:54;;;;;;;18.08;11.00;;;10.70;99.90;;;;;;4905083;29;20134;-78
2021/11/14 13:40:23;;;;;;;22.35;12.70;;;10.60;99.90;;;;;;4913895;29;20080;-79
2021/11/14 13:42:59;;;;;;;20.05;12.40;;;10.60;99.90;;;;;;4912825;29;20561;-78
2021/11/14 13:45:30;;;;;;;25.27;14.00;;;10.60;99.90;;;;;;4913049;29;20613;-78
2021/11/14 13:48:02;;;;;;;23.10;13.32;;;10.60;99.90;;;;;;4914069;29;20076;-76
2021/11/14 13:50:35;;;;;;;23.90;13.80;;;10.60;99.90;;;;;;4914585;29;20079;-77
2021/11/14 13:53:17;;;;;;;22.55;13.40;;;10.60;99.90;;;;;;4913177;29;20080;-76
2021/11/14 13:55:49;;;;;;;21.63;13.40;;;10.60;99.90;;;;;;4913805;29;20127;-76
2021/11/14 13:58:17;;;;;;;23.05;13.68;;;10.50;99.90;;;;;;4914216;29;20143;-76
2021/11/14 14:00:46;;;;;;;21.88;13.07;;;10.60;99.90;;;;;;4914630;29;20559;-77
2021/11/14 14:03:20;;;;;;;24.48;14.52;;;10.50;99.90;;;;;;4908325;29;20048;-79
2021/11/14 14:05:50;;;;;;;22.98;13.80;;;10.50;99.90;;;;;;4914068;29;20082;-75
2021/11/14 14:08:30;;;;;;;20.90;13.38;;;10.50;99.90;;;;;;4913527;29;20142;-79
2021/11/14 14:10:58;;;;;;;22.67;14.05;;;10.50;99.90;;;;;;4914046;29;20481;-77
2021/11/14 14:13:26;;;;;;;23.08;14.07;;;10.50;99.90;;;;;;4914123;29;20143;-77
2021/11/14 14:15:53;;;;;;;24.08;14.10;;;10.50;99.90;;;;;;4912958;29;20139;-81
2021/11/14 14:18:23;;;;;;;22.00;13.65;;;10.50;99.90;;;;;;4899267;29;20126;-81
2021/11/14 14:21:00;;;;;;;19.98;13.18;;;10.40;99.90;;;;;;4911941;29;20142;-77
2021/11/14 14:23:29;;;;;;;21.23;12.50;;;10.40;99.90;;;;;;4900221;29;20103;-78
2021/11/14 14:25:57;;;;;;;22.92;13.77;;;10.40;99.90;;;;;;4914189;29;20081;-76
2021/11/14 14:28:27;;;;;;;23.25;13.88;;;10.40;99.90;;;;;;4899153;29;20090;-79
2021/11/14 14:30:57;;;;;;;21.55;13.93;;;10.40;99.90;;;;;;4914208;29;20103;-78
2021/11/14 14:33:26;;;;;;;22.67;13.32;;;10.40;99.90;;;;;;4913500;29;20055;-80
2021/11/14 14:35:59;;;;;;;23.63;13.52;;;10.30;99.90;;;;;;4913935;29;20135;-78
2021/11/14 14:38:29;;;;;;;19.75;12.55;;;10.40;99.90;;;;;;4902103;29;20486;-79
2021/11/14 14:40:59;;;;;;;21.83;13.25;;;10.30;99.90;;;;;;4913638;29;20506;-78
2021/11/14 14:43:31;;;;;;;20.83;12.75;;;10.30;99.90;;;;;;4913501;29;20171;-80
2021/11/14 14:46:01;;;;;;;20.50;12.63;;;10.30;99.90;;;;;;4912765;29;20550;-77
2021/11/14 14:48:32;;;;;;;19.45;12.80;;;10.30;99.90;;;;;;4913263;29;20143;-80
2021/11/14 14:51:05;;;;;;;20.33;12.55;;;10.30;99.90;;;;;;4911666;29;20048;-79
2021/11/14 14:53:35;;;;;;;19.27;12.20;;;10.30;99.90;;;;;;4913589;29;20072;-80
2021/11/14 14:56:15;;;;;;;19.30;12.20;;;10.30;99.90;;;;;;4912539;29;20135;-78
2021/11/14 14:58:59;;;;;;;24.38;14.48;;;10.30;99.90;;;;;;4913104;29;20135;-77
2021/11/14 15:01:31;;;;;;;21.90;13.07;;;10.30;99.90;;;;;;4898601;29;20131;-80
2021/11/14 15:04:10;;;;;;;19.77;12.65;;;10.30;99.90;;;;;;4913228;29;20162;-78
2021/11/14 15:06:41;;;;;;;19.30;11.88;;;10.30;99.90;;;;;;4912594;29;20135;-78
2021/11/14 15:09:20;;;;;;;21.70;12.80;;;10.30;99.90;;;;;;4912474;29;20143;-75
2021/11/14 15:11:52;;;;;;;18.08;10.93;;;10.30;99.90;;;;;;4912569;29;20091;-77
2021/11/14 15:14:19;;;;;;;17.17;11.43;;;10.30;99.90;;;;;;4912656;29;20123;-76
2021/11/14 15:16:46;;;;;;;17.35;11.32;;;10.30;99.90;;;;;;4913231;29;20087;-75
2021/11/14 15:19:20;;;;;;;18.20;11.27;;;10.30;99.90;;;;;;4912743;29;20096;-75
2021/11/14 15:21:48;;;;;;;18.27;11.70;;;10.30;99.90;;;;;;4912243;29;20111;-77
2021/11/14 15:24:16;;;;;;;18.23;11.30;;;10.30;99.90;;;;;;4912583;29;20959;-75
2021/11/14 15:26:43;;;;;;;17.13;10.52;;;10.30;99.90;;;;;;4912130;29;20056;-75
2021/11/14 15:29:10;;;;;;;15.43;9.60;;;10.20;99.90;;;;;;4912401;29;20763;-75
2021/11/14 15:31:37;;;;;;;14.40;9.07;;;10.20;99.90;;;;;;4912855;29;20134;-75
2021/11/14 15:34:05;;;;;;;14.45;9.07;;;10.20;99.90;;;;;;4912780;29;20486;-77
2021/11/14 15:36:32;;;;;;;15.63;10.20;;;10.20;99.90;;;;;;4911649;29;20478;-75
2021/11/14 15:39:00;;;;;;;14.60;9.48;;;10.20;99.90;;;;;;4911970;29;20138;-77
2021/11/14 15:41:27;;;;;;;15.93;9.68;;;10.20;99.90;;;;;;4912931;29;20131;-75
2021/11/14 15:43:54;;;;;;;15.35;9.95;;;10.20;99.90;;;;;;4913777;29;20052;-77
2021/11/14 15:46:21;;;;;;;14.30;8.70;;;10.20;99.90;;;;;;4928098;29;20047;-75
2021/11/14 15:48:49;;;;;;;14.93;8.85;;;10.20;99.90;;;;;;4930071;29;20085;-74
2021/11/14 15:51:16;;;;;;;12.23;8.13;;;10.20;99.90;;;;;;4916989;29;20087;-75
2021/11/14 15:53:43;;;;;;;12.82;7.95;;;10.20;99.90;;;;;;4912479;29;20139;-75
2021/11/14 15:56:11;;;;;;;12.52;7.88;;;10.20;99.90;;;;;;4912625;29;20417;-77
2021/11/14 15:58:38;;;;;;;12.35;7.63;;;10.20;99.90;;;;;;4912455;29;20139;-77
2021/11/14 16:01:05;;;;;;;13.55;7.93;;;10.20;99.90;;;;;;4912584;29;20143;-77
2021/11/14 16:03:33;;;;;;;11.55;7.53;;;10.20;99.90;;;;;;4910954;29;20135;-80
2021/11/14 16:06:00;;;;;;;13.38;8.10;;;10.20;99.90;;;;;;4912037;29;20140;-75
2021/11/14 16:08:27;;;;;;;11.65;7.72;;;10.20;99.90;;;;;;4912268;29;20143;-75
2021/11/14 16:10:54;;;;;;;12.35;8.15;;;10.20;99.90;;;;;;4912088;29;20482;-78
2021/11/14 16:13:23;;;;;;;12.75;7.80;;;10.20;99.90;;;;;;4912007;29;20048;-76
2021/11/14 16:15:50;;;;;;;11.57;7.20;;;10.20;99.90;;;;;;4901368;29;20468;-78
2021/11/14 16:18:18;;;;;;;11.60;7.28;;;10.20;99.90;;;;;;4911478;29;20131;-75
2021/11/14 16:20:46;;;;;;;13.18;8.32;;;10.20;99.90;;;;;;4911927;29;20088;-79
2021/11/14 16:23:13;;;;;;;12.30;7.55;;;10.20;99.90;;;;;;4912096;29;20102;-76
2021/11/14 16:25:41;;;;;;;13.05;8.13;;;10.20;99.90;;;;;;4912242;29;20135;-80
2021/11/14 16:28:10;;;;;;;12.32;7.93;;;10.20;99.90;;;;;;4912035;29;20466;-77
2021/11/14 16:30:39;;;;;;;13.85;7.90;;;10.20;99.90;;;;;;4911553;29;20060;-78
2021/11/14 16:33:06;;;;;;;12.90;7.25;;;10.10;99.90;;;;;;4910493;29;20076;-79
2021/11/14 16:35:37;;;;;;;12.50;7.70;;;10.10;99.90;;;;;;4911799;29;20052;-78
2021/11/14 16:38:05;;;;;;;12.07;7.22;;;10.10;99.90;;;;;;4912134;29;20056;-80
2021/11/14 16:40:32;;;;;;;12.35;7.72;;;10.20;99.90;;;;;;4911903;29;20063;-79
2021/11/14 16:43:00;;;;;;;13.23;7.47;;;10.10;99.90;;;;;;4911697;29;20466;-77
2021/11/14 16:45:28;;;;;;;13.10;7.18;;;10.10;99.90;;;;;;4911275;29;20076;-79
2021/11/14 16:47:57;;;;;;;12.18;7.53;;;10.10;99.90;;;;;;4908799;29;20135;-76
2021/11/14 16:50:25;;;;;;;11.75;7.07;;;10.10;99.90;;;;;;4908246;29;20092;-75
2021/11/14 16:52:57;;;;;;;12.88;7.45;;;10.10;99.90;;;;;;4914165;29;20131;-82
2021/11/14 16:55:24;;;;;;;13.23;7.90;;;10.10;99.90;;;;;;4912880;29;20514;-79
2021/11/14 16:57:51;;;;;;;12.32;7.03;;;10.10;99.90;;;;;;4913805;29;20079;-75
2021/11/14 17:00:20;;;;;;;12.70;7.32;;;10.20;99.90;;;;;;4915008;29;20568;-77
2021/11/14 17:02:50;;;;;;;12.57;7.25;;;10.20;99.90;;;;;;4910047;29;20052;-74
2021/11/14 17:05:19;;;;;;;12.57;7.50;;;10.30;99.90;;;;;;4907071;29;20466;-76
2021/11/14 17:07:47;;;;;;;12.80;7.88;;;10.30;99.90;;;;;;4912280;29;20147;-76
2021/11/14 17:10:14;;;;;;;12.18;7.70;;;10.40;99.90;;;;;;4913920;29;20078;-77
2021/11/14 17:12:43;;;;;;;13.60;7.80;;;10.50;99.90;;;;;;4915563;29;20152;-78
2021/11/14 17:15:12;;;;;;;12.50;7.28;;;10.50;99.90;;;;;;4915690;29;20143;-75
2021/11/14 17:17:39;;;;;;;11.32;7.57;;;10.50;99.90;;;;;;4914236;29;20521;-75
2021/11/14 17:20:08;;;;;;;12.18;7.68;;;10.50;99.90;;;;;;4914573;29;20075;-77
2021/11/14 17:22:36;;;;;;;12.20;7.38;;;10.50;99.90;;;;;;4914480;29;20082;-78
2021/11/14 17:25:05;;;;;;;12.77;7.82;;;10.50;99.90;;;;;;4914430;29;20135;-78
2021/11/14 17:27:32;;;;;;;12.18;8.20;;;10.50;99.90;;;;;;4914956;29;20131;-77
2021/11/14 17:29:59;;;;;;;11.20;7.15;;;10.40;99.90;;;;;;4914461;29;20127;-75
2021/11/14 17:32:26;;;;;;;12.85;8.00;;;10.40;99.90;;;;;;4914328;29;20076;-81
2021/11/14 17:34:54;;;;;;;12.00;7.53;;;10.40;99.90;;;;;;4914732;29;20135;-76
2021/11/14 17:37:21;;;;;;;12.38;7.35;;;10.30;99.90;;;;;;4912496;29;20131;-75
2021/11/14 17:39:49;;;;;;;12.23;7.80;;;10.30;99.90;;;;;;4913396;29;20135;-79
2021/11/14 17:42:17;;;;;;;11.60;6.95;;;10.30;99.90;;;;;;4913798;29;20054;-80
2021/11/14 17:44:44;;;;;;;13.20;7.72;;;10.20;99.90;;;;;;4915198;29;20079;-76
2021/11/14 17:47:12;;;;;;;10.57;7.00;;;10.30;99.90;;;;;;4914298;29;20148;-78
2021/11/14 17:49:39;;;;;;;11.43;7.18;;;10.20;99.90;;;;;;4913858;29;20052;-78
2021/11/14 17:52:07;;;;;;;13.27;7.18;;;10.20;99.90;;;;;;4914000;29;20135;-79
2021/11/14 17:54:36;;;;;;;10.75;6.78;;;10.10;99.90;;;;;;4913791;29;20107;-83
2021/11/14 17:57:06;;;;;;;9.50;6.57;;;10.10;99.90;;;;;;4914452;29;20383;-76
2021/11/14 17:59:34;;;;;;;11.15;6.53;;;10.10;99.90;;;;;;4913870;29;20060;-75
2021/11/14 18:02:01;;;;;;;10.80;6.25;;;10.10;99.90;;;;;;4913906;29;20067;-76
2021/11/14 18:04:28;;;;;;;11.18;6.80;;;10.10;99.90;;;;;;4913475;29;20139;-75
2021/11/14 18:06:55;;;;;;;10.35;6.80;;;10.10;99.90;;;;;;4913603;29;20143;-77
2021/11/14 18:09:22;;;;;;;9.65;6.35;;;10.10;99.90;;;;;;4914031;29;20148;-77
2021/11/14 18:11:51;;;;;;;11.15;7.00;;;10.10;99.90;;;;;;4910366;29;20083;-75
2021/11/14 18:14:20;;;;;;;9.77;6.75;;;10.10;99.90;;;;;;4912788;29;20131;-81
2021/11/14 18:16:47;;;;;;;9.63;6.32;;;10.10;99.90;;;;;;4907025;29;20048;-79
2021/11/14 18:19:14;;;;;;;9.45;6.00;;;10.10;99.90;;;;;;4913727;29;20564;-77
2021/11/14 18:21:41;;;;;;;10.88;6.50;;;10.00;99.90;;;;;;4901519;29;20139;-76
2021/11/14 18:24:08;;;;;;;8.75;5.90;;;10.00;99.90;;;;;;4911300;29;20446;-78
2021/11/14 18:26:36;;;;;;;10.23;6.50;;;10.10;99.90;;;;;;4913220;29;20071;-76
2021/11/14 18:29:07;;;;;;;10.32;6.22;;;10.00;99.90;;;;;;4913139;29;20131;-75
2021/11/14 18:31:36;;;;;;;8.75;5.55;;;10.00;99.90;;;;;;4913198;29;20126;-77
2021/11/14 18:34:03;;;;;;;8.35;5.15;;;10.00;99.90;;;;;;4913321;29;20048;-76
2021/11/14 18:36:30;;;;;;;8.07;5.20;;;10.00;99.90;;;;;;4913886;29;20071;-76
2021/11/14 18:38:57;;;;;;;7.85;5.25;;;10.10;99.90;;;;;;4913805;29;20072;-76
2021/11/14 18:41:25;;;;;;;7.57;5.10;;;10.00;99.90;;;;;;4917004;29;20051;-75
2021/11/14 18:43:52;;;;;;;8.45;5.40;;;10.10;99.90;;;;;;4918775;29;20461;-75
2021/11/14 18:46:20;;;;;;;7.38;4.95;;;10.10;99.90;;;;;;4909698;29;20512;-75
2021/11/14 18:48:48;;;;;;;8.38;5.10;;;10.10;99.90;;;;;;4909355;29;20485;-73